Weather Display Live

LIVE WEATHER, Rathlin Island , Northern Ireland , UK.
- Weather Data Uploaded via a WMR200 Weather Station -
-
Live Data More Data Mobile Radar AIS Tides Forecast Community Shipwrecks Tides round Rathlin Facebook



Weather report/warning/Metars

Eglinton / Londonderr, United Kingdom (EGAE) 55-03N 007-09W
Sep 22, 2019 - 10:50 AM EDT / 2019.09.22 1450 UTC
Wind: Variable at 2 MPH (2 KT):0
Visibility: greater than 7 mile(s):0
Sky conditions: mostly clear
Temperature: 62 F (17 C)
Dew Point: 60 F (16 C)
Relative Humidity: 93%
Pressure (altimeter): 29.50 in. Hg (0999 hPa)
ob: EGAE 221450Z VRB02KT 9999 FEW011 17/16 Q0999
cycle: 15



Use the RELOAD facility on your browser to retrieve the latest data.

Click here for a daily update of the averages/extremes to date for the month
Created by "Weather Display" software version 10.37S at this start time/date 12:32:30 22/09/2019